EKBI Airport Information

Runway Information
Runway 09 Length 10172 ft width 148 ft
Elevation 215 ft Threshold 492 ft Heading 87
Runway 27 Length 10172 ft Width 148 ft
Elevation 244 ft Threshold 492 ft Heading 267
Airport Frequencies
Type APP Name APP Frequency 127.575 MHZ
Type ATIS Name ATIS Frequency 118.775 MHZ
Type MISC Name CARGO HAND Frequency 122.075 MHZ
Type MISC Name HANDLING Frequency 130.85 MHZ
Type OPS Name ARPT OFFIC Frequency 131.5 MHZ
Type TWR Name TWR Frequency 119 MHZ
Airport Navaids
Type NDB Name Billund Frequency 341 KHZ
Airport Weather Information & NOTAM
ADDS - METARS form results

(1244 UTC 12 August 2020)
Data provider http://aviationweather.gov/metar/data/
 
METAR text: EKBI 121220Z AUTO 10009KT 060V140 9999 NCD 26/16 Q1021
Conditions at: EKBI (BILLUND AIRPORT , DK) observed 1220 UTC 12 August 2020
Temperature: 26.0°C (79°F)
Dewpoint: 16.0°C (61°F) [RH = 54%]
Pressure (altimeter): 30.15 inches Hg (1021.0 mb)
Winds: from the E (100 degrees) at 10 MPH (9 knots; 4.6 m/s)
Visibility: 6 or more miles (10+ km)
Ceiling: at least 12,000 feet AGL
Clouds: sky clear below 12,000 feet AGL
Weather: no significant weather observed at this time

METAR text: EKBI 121150Z AUTO 10009KT 070V140 9999 NCD 25/16 Q1021
Conditions at: EKBI (BILLUND AIRPORT , DK) observed 1150 UTC 12 August 2020
Temperature: 25.0°C (77°F)
Dewpoint: 16.0°C (61°F) [RH = 57%]
Pressure (altimeter): 30.15 inches Hg (1021.0 mb)
Winds: from the E (100 degrees) at 10 MPH (9 knots; 4.6 m/s)
Visibility: 6 or more miles (10+ km)
Ceiling: at least 12,000 feet AGL
Clouds: sky clear below 12,000 feet AGL
Weather: no significant weather observed at this time

Forecast for: EKBI (BILLUND AIRPORT , DK)
Text: TAF EKBI 121100Z 1212/1312 11010KT CAVOK
Forecast period: 1200 UTC 12 August 2020 to 1200 UTC 13 August 2020
Forecast type: FROM: standard forecast or significant change
Winds: from the ESE (110 degrees) at 12 MPH (10 knots; 5.1 m/s)
Visibility: 6 or more miles (10+ km)
Ceiling: unknown
Clouds: missing
Weather: NSW  (no significant weather)